Time;durP1;ratioP1;P1;durP2;ratioP2;P2;SDS_P1;SDS_P2;PMS_P1;PMS_P2;Temp;Humidity;BMP_temperature;BMP_pressure;BME280_temperature;BME280_humidity;BME280_pressure;Samples;Min_cycle;Max_cycle;Signal;HPM_P1;HPM_P2
2022/04/05 00:00:57;;;;;;;;;;;7.80;65.90;;;;;;4946882;28;88708;-53
2022/04/05 00:03:23;;;;;;;;;;;7.80;65.90;;;;;;4947117;28;86926;-53
2022/04/05 00:05:49;;;;;;;;;;;7.80;65.90;;;;;;4946629;28;87994;-51
2022/04/05 00:08:17;;;;;;;;;;;7.80;65.90;;;;;;4946386;28;88569;-53
2022/04/05 00:10:44;;;;;;;;;;;7.70;66.50;;;;;;4947101;28;86892;-51
2022/04/05 00:13:10;;;;;;;;;;;7.70;65.90;;;;;;4949867;28;86809;-55
2022/04/05 00:15:36;;;;;;;;;;;7.80;65.90;;;;;;4947119;28;87050;-51
2022/04/05 00:18:02;;;;;;;;;;;7.70;65.90;;;;;;4947003;28;87777;-55
2022/04/05 00:20:28;;;;;;;;;;;7.70;65.90;;;;;;4946981;28;86844;-53
2022/04/05 00:22:54;;;;;;;;;;;7.70;66.00;;;;;;4947381;28;86147;-54
2022/04/05 00:25:20;;;;;;;;;;;7.70;66.00;;;;;;4947008;28;87181;-54
2022/04/05 00:27:46;;;;;;;;;;;7.70;66.00;;;;;;4946553;28;88756;-54
2022/04/05 00:30:12;;;;;;;;;;;7.70;66.00;;;;;;4946342;28;87816;-50
2022/04/05 00:32:38;;;;;;;;;;;7.70;66.10;;;;;;4949544;28;87733;-51
2022/04/05 00:35:04;;;;;;;;;;;7.70;66.20;;;;;;4946834;28;86871;-50
2022/04/05 00:37:30;;;;;;;;;;;7.70;66.10;;;;;;4946896;28;87128;-53
2022/04/05 00:39:55;;;;;;;;;;;7.70;66.10;;;;;;4946511;28;88688;-51
2022/04/05 00:42:21;;;;;;;;;;;7.60;66.00;;;;;;4946755;28;86806;-51
2022/04/05 00:44:48;;;;;;;;;;;7.60;66.00;;;;;;4946762;28;87004;-51
2022/04/05 00:47:17;;;;;;;;;;;7.60;66.00;;;;;;4946847;28;87125;-54
2022/04/05 00:49:44;;;;;;;;;;;7.70;66.00;;;;;;4946674;28;87064;-54
2022/04/05 00:52:10;;;;;;;;;;;7.60;66.00;;;;;;4946600;28;87818;-51
2022/04/05 00:54:37;;;;;;;;;;;7.60;66.10;;;;;;4948747;28;88388;-51
2022/04/05 00:57:03;;;;;;;;;;;7.60;66.10;;;;;;4946875;28;88112;-52
2022/04/05 00:59:30;;;;;;;;;;;7.60;65.90;;;;;;4946315;28;88457;-55
2022/04/05 01:01:56;;;;;;;;;;;7.60;66.00;;;;;;4946815;28;87184;-50
2022/04/05 01:04:22;;;;;;;;;;;7.60;66.00;;;;;;4948546;28;87949;-51
2022/04/05 01:06:48;;;;;;;;;;;7.60;65.90;;;;;;4949247;28;87501;-53
2022/04/05 01:09:14;;;;;;;;;;;7.60;66.10;;;;;;4949799;28;86872;-51
2022/04/05 01:11:40;;;;;;;;;;;7.60;66.20;;;;;;4950454;28;86051;-54
2022/04/05 01:14:06;;;;;;;;;;;7.60;66.10;;;;;;4949380;28;88720;-52
2022/04/05 01:16:32;;;;;;;;;;;7.60;66.10;;;;;;4952831;28;86995;-50
2022/04/05 01:18:57;;;;;;;;;;;7.60;66.10;;;;;;4948623;28;89018;-51
2022/04/05 01:21:23;;;;;;;;;;;7.60;66.10;;;;;;4949652;28;86892;-53
2022/04/05 01:24:07;;;;;;;;;;;7.50;66.10;;;;;;4949802;28;87340;-54
2022/04/05 01:26:40;;;;;;;;;;;7.60;66.10;;;;;;4949217;28;88408;-51
2022/04/05 01:29:06;;;;;;;;;;;7.50;65.90;;;;;;4949630;28;86888;-53
2022/04/05 01:31:38;;;;;;;;;;;7.50;66.00;;;;;;4949499;28;86923;-53
2022/04/05 01:34:04;;;;;;;;;;;7.50;65.90;;;;;;4949080;28;88587;-53
2022/04/05 01:36:30;;;;;;;;;;;7.60;65.90;;;;;;4949935;28;86128;-51
2022/04/05 01:38:56;;;;;;;;;;;7.50;66.10;;;;;;4951275;28;86861;-51
2022/04/05 01:41:21;;;;;;;;;;;7.50;66.10;;;;;;4949362;28;87143;-50
2022/04/05 01:43:47;;;;;;;;;;;7.50;66.10;;;;;;4948771;28;88253;-52
2022/04/05 01:46:12;;;;;;;;;;;7.50;66.10;;;;;;4948946;28;88605;-54
2022/04/05 01:48:39;;;;;;;;;;;7.50;66.10;;;;;;4949507;28;86862;-53
2022/04/05 01:51:07;;;;;;;;;;;7.50;66.10;;;;;;4949209;28;87901;-54
2022/04/05 01:53:32;;;;;;;;;;;7.40;66.10;;;;;;4948819;28;88700;-54
2022/04/05 01:55:58;;;;;;;;;;;7.40;66.00;;;;;;4949483;28;86779;-50
2022/04/05 01:58:24;;;;;;;;;;;7.40;66.10;;;;;;4949399;28;86868;-53
2022/04/05 02:00:51;;;;;;;;;;;7.40;66.00;;;;;;4951992;28;86990;-51
2022/04/05 02:03:17;;;;;;;;;;;7.40;66.10;;;;;;4949215;28;87299;-50
2022/04/05 02:05:46;;;;;;;;;;;7.40;66.10;;;;;;4948783;28;87633;-53
2022/04/05 02:08:12;;;;;;;;;;;7.40;66.10;;;;;;4947888;28;87808;-51
2022/04/05 02:10:38;;;;;;;;;;;7.40;66.10;;;;;;4948894;28;88593;-53
2022/04/05 02:13:04;;;;;;;;;;;7.40;66.10;;;;;;4948550;28;87427;-51
2022/04/05 02:15:29;;;;;;;;;;;7.40;66.10;;;;;;4948535;28;86861;-51
2022/04/05 02:17:55;;;;;;;;;;;7.40;66.10;;;;;;4949197;28;87443;-52
2022/04/05 02:20:21;;;;;;;;;;;7.40;66.10;;;;;;4948407;28;88608;-51
2022/04/05 02:22:46;;;;;;;;;;;7.40;66.00;;;;;;4951969;28;87154;-51
2022/04/05 02:25:12;;;;;;;;;;;7.40;66.00;;;;;;4948946;28;87832;-53
2022/04/05 02:27:41;;;;;;;;;;;7.40;66.00;;;;;;4948691;28;86896;-54
2022/04/05 02:30:07;;;;;;;;;;;7.40;66.10;;;;;;4948930;28;86860;-52
2022/04/05 02:32:33;;;;;;;;;;;7.40;66.00;;;;;;4947736;28;88328;-54
2022/04/05 02:34:58;;;;;;;;;;;7.30;66.00;;;;;;4948573;28;86900;-54
2022/04/05 02:37:24;;;;;;;;;;;7.30;66.00;;;;;;4948826;28;86908;-50
2022/04/05 02:39:49;;;;;;;;;;;7.30;66.10;;;;;;4948365;28;87509;-52
2022/04/05 02:42:15;;;;;;;;;;;7.30;66.10;;;;;;4951546;28;86969;-52
2022/04/05 02:44:42;;;;;;;;;;;7.30;66.10;;;;;;4947691;28;87662;-54
2022/04/05 02:47:09;;;;;;;;;;;7.30;66.10;;;;;;4948367;28;86864;-51
2022/04/05 02:49:34;;;;;;;;;;;7.30;66.70;;;;;;4948803;28;87878;-51
2022/04/05 02:52:00;;;;;;;;;;;7.30;66.10;;;;;;4947967;28;88500;-53
2022/04/05 02:54:26;;;;;;;;;;;7.30;66.00;;;;;;4948356;28;86965;-54
2022/04/05 02:56:51;;;;;;;;;;;7.30;65.90;;;;;;4947589;28;87812;-50
2022/04/05 02:59:17;;;;;;;;;;;7.30;65.90;;;;;;4947779;28;87619;-51
2022/04/05 03:01:43;;;;;;;;;;;7.30;66.00;;;;;;4948165;28;86861;-54
2022/04/05 03:04:10;;;;;;;;;;;7.30;66.10;;;;;;4950566;28;87090;-51
2022/04/05 03:06:35;;;;;;;;;;;7.20;66.10;;;;;;4947442;28;87070;-52
2022/04/05 03:09:02;;;;;;;;;;;7.30;66.00;;;;;;4947978;28;88259;-52
2022/04/05 03:11:28;;;;;;;;;;;7.20;66.00;;;;;;4947516;28;87602;-52
2022/04/05 03:13:53;;;;;;;;;;;7.20;66.10;;;;;;4948345;28;86468;-50
2022/04/05 03:16:19;;;;;;;;;;;7.20;66.00;;;;;;4948084;28;86980;-51
2022/04/05 03:18:48;;;;;;;;;;;7.20;66.00;;;;;;4947391;28;88533;-52
2022/04/05 03:21:14;;;;;;;;;;;7.20;65.90;;;;;;4947204;28;87805;-51
2022/04/05 03:23:40;;;;;;;;;;;7.20;65.90;;;;;;4947870;28;88945;-50
2022/04/05 03:26:06;;;;;;;;;;;7.20;66.10;;;;;;4950180;28;88529;-52
2022/04/05 03:28:31;;;;;;;;;;;7.20;65.90;;;;;;4946709;28;88282;-51
2022/04/05 03:30:57;;;;;;;;;;;7.10;66.10;;;;;;4947260;28;88536;-51
2022/04/05 03:33:22;;;;;;;;;;;7.20;66.00;;;;;;4947525;28;86893;-54
2022/04/05 03:35:49;;;;;;;;;;;7.20;65.90;;;;;;4947682;28;87155;-51
2022/04/05 03:38:15;;;;;;;;;;;7.10;66.00;;;;;;4947818;28;87658;-51
2022/04/05 03:40:41;;;;;;;;;;;7.10;65.90;;;;;;4947585;28;86933;-51
2022/04/05 03:43:11;;;;;;;;;;;7.10;66.00;;;;;;4947563;28;87996;-51
2022/04/05 03:45:36;;;;;;;;;;;7.10;66.00;;;;;;4946441;28;89541;-51
2022/04/05 03:48:02;;;;;;;;;;;7.10;65.80;;;;;;4950596;28;86860;-52
2022/04/05 03:50:28;;;;;;;;;;;7.10;65.90;;;;;;4946997;28;88372;-54
2022/04/05 03:52:54;;;;;;;;;;;7.10;65.90;;;;;;4947290;28;86821;-52
2022/04/05 03:55:20;;;;;;;;;;;7.10;65.90;;;;;;4947370;28;87000;-54
2022/04/05 03:57:45;;;;;;;;;;;7.00;66.00;;;;;;4946973;28;88640;-53
2022/04/05 04:00:11;;;;;;;;;;;7.00;66.00;;;;;;4947262;28;86863;-51
2022/04/05 04:02:37;;;;;;;;;;;7.00;65.90;;;;;;4948031;28;86646;-52
2022/04/05 04:05:03;;;;;;;;;;;7.10;65.90;;;;;;4946927;28;88439;-51
2022/04/05 04:07:29;;;;;;;;;;;7.00;65.90;;;;;;4946886;28;86945;-50
2022/04/05 04:09:54;;;;;;;;;;;7.00;65.90;;;;;;4949365;28;87770;-51
2022/04/05 04:12:20;;;;;;;;;;;7.10;65.90;;;;;;4947018;28;87063;-50
2022/04/05 04:14:45;;;;;;;;;;;7.00;65.80;;;;;;4947146;28;88152;-52
2022/04/05 04:17:11;;;;;;;;;;;7.00;65.90;;;;;;4946872;28;87442;-52
2022/04/05 04:19:37;;;;;;;;;;;7.00;65.90;;;;;;4947400;28;86868;-51
2022/04/05 04:22:02;;;;;;;;;;;7.00;66.00;;;;;;4947261;28;86840;-50
2022/04/05 04:24:28;;;;;;;;;;;7.00;65.90;;;;;;4946670;28;88457;-51
2022/04/05 04:26:54;;;;;;;;;;;7.00;66.00;;;;;;4947503;28;86142;-54
2022/04/05 04:29:19;;;;;;;;;;;6.90;65.90;;;;;;4947228;28;86868;-52
2022/04/05 04:31:45;;;;;;;;;;;6.90;65.90;;;;;;4949366;28;88980;-52
2022/04/05 04:34:11;;;;;;;;;;;6.90;65.90;;;;;;4946605;28;87840;-52
2022/04/05 04:36:37;;;;;;;;;;;6.90;66.00;;;;;;4946540;28;88453;-55
2022/04/05 04:39:02;;;;;;;;;;;6.90;65.90;;;;;;4948376;28;87088;-52
2022/04/05 04:41:28;;;;;;;;;;;6.90;65.80;;;;;;4950276;28;87793;-51
2022/04/05 04:43:54;;;;;;;;;;;7.00;65.90;;;;;;4949899;28;87661;-51
2022/04/05 04:46:19;;;;;;;;;;;6.90;65.80;;;;;;4950225;28;87034;-55
2022/04/05 04:48:47;;;;;;;;;;;6.90;65.80;;;;;;4950412;28;87366;-52
2022/04/05 04:51:13;;;;;;;;;;;6.90;65.90;;;;;;4953030;28;87793;-51
2022/04/05 04:53:39;;;;;;;;;;;6.90;65.90;;;;;;4950103;28;86883;-51
2022/04/05 04:56:05;;;;;;;;;;;6.90;65.90;;;;;;4949982;28;86923;-55
2022/04/05 04:58:30;;;;;;;;;;;6.80;65.80;;;;;;4949365;28;88572;-51
2022/04/05 05:00:56;;;;;;;;;;;6.90;65.90;;;;;;4949996;28;88967;-51
2022/04/05 05:03:22;;;;;;;;;;;6.80;65.80;;;;;;4949514;28;88425;-52
2022/04/05 05:05:47;;;;;;;;;;;6.80;65.90;;;;;;4950208;28;86982;-54
2022/04/05 05:08:13;;;;;;;;;;;6.80;65.80;;;;;;4949463;28;88012;-51
2022/04/05 05:10:39;;;;;;;;;;;6.80;65.90;;;;;;4949444;28;88474;-52
2022/04/05 05:13:04;;;;;;;;;;;6.80;66.00;;;;;;4952955;28;86845;-52
2022/04/05 05:15:30;;;;;;;;;;;6.70;65.90;;;;;;4950161;28;86644;-55
2022/04/05 05:17:55;;;;;;;;;;;6.80;65.90;;;;;;4949844;28;87036;-53
2022/04/05 05:20:21;;;;;;;;;;;6.80;65.70;;;;;;4949717;28;87955;-53
2022/04/05 05:22:47;;;;;;;;;;;6.80;65.80;;;;;;4948700;28;88536;-51
2022/04/05 05:25:13;;;;;;;;;;;6.80;65.70;;;;;;4949555;28;86932;-50
2022/04/05 05:27:39;;;;;;;;;;;6.80;65.70;;;;;;4949541;28;87786;-54
2022/04/05 05:30:07;;;;;;;;;;;6.80;65.70;;;;;;4949120;28;88408;-51
2022/04/05 05:32:40;;;;;;;;;;;6.80;65.70;;;;;;4949380;28;87074;-51
2022/04/05 05:35:06;;;;;;;;;;;6.80;65.70;;;;;;4951628;28;86850;-51
2022/04/05 05:37:32;;;;;;;;;;;6.80;65.70;;;;;;4949410;28;86977;-53
2022/04/05 05:39:57;;;;;;;;;;;6.80;65.70;;;;;;4949898;28;87716;-52
2022/04/05 05:42:23;;;;;;;;;;;6.70;65.70;;;;;;4948905;28;88908;-52
2022/04/05 05:44:50;;;;;;;;;;;6.80;65.70;;;;;;4949587;28;87122;-52
2022/04/05 05:47:15;;;;;;;;;;;6.80;65.70;;;;;;4948744;28;87999;-55
2022/04/05 05:49:42;;;;;;;;;;;6.80;65.70;;;;;;4948514;28;87579;-54
2022/04/05 05:52:08;;;;;;;;;;;6.80;65.50;;;;;;4949053;28;86946;-51
2022/04/05 05:54:33;;;;;;;;;;;6.80;65.50;;;;;;4949206;28;87729;-53
2022/04/05 05:56:59;;;;;;;;;;;6.80;65.50;;;;;;4951443;28;87700;-55
2022/04/05 05:59:26;;;;;;;;;;;6.80;65.50;;;;;;4949071;28;87947;-53
2022/04/05 06:01:51;;;;;;;;;;;6.80;65.40;;;;;;4948669;28;88830;-54
2022/04/05 06:04:17;;;;;;;;;;;6.80;65.50;;;;;;4949453;28;86118;-50
2022/04/05 06:06:43;;;;;;;;;;;6.80;65.50;;;;;;4948584;28;86904;-51
2022/04/05 06:09:08;;;;;;;;;;;6.80;65.40;;;;;;4948881;28;87524;-51
2022/04/05 06:11:34;;;;;;;;;;;6.80;65.50;;;;;;4948489;28;87936;-54
2022/04/05 06:13:59;;;;;;;;;;;6.80;65.50;;;;;;4949151;28;87741;-55
2022/04/05 06:16:25;;;;;;;;;;;6.80;65.50;;;;;;4948499;28;88646;-52
2022/04/05 06:18:51;;;;;;;;;;;6.80;65.50;;;;;;4951725;28;87246;-52
2022/04/05 06:21:21;;;;;;;;;;;6.80;65.50;;;;;;4948393;28;88964;-50
2022/04/05 06:23:47;;;;;;;;;;;6.80;65.50;;;;;;4948998;28;86848;-50
2022/04/05 06:26:12;;;;;;;;;;;6.80;65.50;;;;;;4948707;28;88038;-52
2022/04/05 06:28:38;;;;;;;;;;;6.80;65.60;;;;;;4948810;28;87883;-50
2022/04/05 06:31:04;;;;;;;;;;;6.80;65.60;;;;;;4948554;28;86910;-54
2022/04/05 06:33:30;;;;;;;;;;;6.80;65.70;;;;;;4948562;28;87802;-51
2022/04/05 06:35:57;;;;;;;;;;;6.80;65.60;;;;;;4947579;28;89495;-51
2022/04/05 06:38:23;;;;;;;;;;;6.80;65.50;;;;;;4948403;28;86853;-52
2022/04/05 06:40:49;;;;;;;;;;;6.80;65.60;;;;;;4951300;28;86852;-51
2022/04/05 06:43:15;;;;;;;;;;;6.80;65.60;;;;;;4948371;28;87081;-53
2022/04/05 06:45:41;;;;;;;;;;;6.80;65.60;;;;;;4948426;28;87034;-51
2022/04/05 06:48:09;;;;;;;;;;;6.80;65.70;;;;;;4948238;28;86786;-50
2022/04/05 06:50:38;;;;;;;;;;;6.80;65.70;;;;;;4948280;28;86940;-51
2022/04/05 06:53:07;;;;;;;;;;;6.80;65.70;;;;;;4948541;28;88130;-54
2022/04/05 06:55:33;;;;;;;;;;;6.80;65.60;;;;;;4947769;28;87751;-52
2022/04/05 06:57:58;;;;;;;;;;;6.80;65.60;;;;;;4948164;28;86939;-54
2022/04/05 07:00:25;;;;;;;;;;;6.80;65.60;;;;;;4950300;28;87808;-52
2022/04/05 07:02:52;;;;;;;;;;;6.80;65.60;;;;;;4948040;28;86964;-52
2022/04/05 07:05:18;;;;;;;;;;;6.80;65.60;;;;;;4948309;28;86830;-50
2022/04/05 07:07:43;;;;;;;;;;;6.90;65.50;;;;;;4947289;28;88749;-55
2022/04/05 07:10:11;;;;;;;;;;;6.80;65.60;;;;;;4947918;28;86999;-50
2022/04/05 07:12:37;;;;;;;;;;;6.80;65.50;;;;;;4948249;28;86876;-55
2022/04/05 07:15:03;;;;;;;;;;;6.90;65.40;;;;;;4947504;28;87538;-50
2022/04/05 07:17:29;;;;;;;;;;;6.80;65.30;;;;;;4948324;28;86242;-50
2022/04/05 07:19:55;;;;;;;;;;;6.80;65.30;;;;;;4947923;28;86832;-50
2022/04/05 07:22:20;;;;;;;;;;;6.90;65.20;;;;;;4950621;28;87199;-50
2022/04/05 07:24:46;;;;;;;;;;;6.80;65.40;;;;;;4947297;28;88180;-50
2022/04/05 07:27:12;;;;;;;;;;;6.80;65.20;;;;;;4947468;28;87596;-50
2022/04/05 07:29:38;;;;;;;;;;;6.80;65.50;;;;;;4948043;28;86875;-50
2022/04/05 07:32:04;;;;;;;;;;;6.80;65.50;;;;;;4947836;28;86848;-51
2022/04/05 07:34:30;;;;;;;;;;;6.80;65.60;;;;;;4947459;28;87751;-51
2022/04/05 07:36:55;;;;;;;;;;;6.80;65.50;;;;;;4947868;28;86892;-51
2022/04/05 07:39:22;;;;;;;;;;;6.80;65.60;;;;;;4947844;28;86859;-50
2022/04/05 07:41:48;;;;;;;;;;;6.90;65.60;;;;;;4947684;28;86945;-50
2022/04/05 07:44:13;;;;;;;;;;;6.80;65.50;;;;;;4950269;28;87166;-50
2022/04/05 07:46:39;;;;;;;;;;;6.90;65.40;;;;;;4947109;28;88524;-50
2022/04/05 07:49:05;;;;;;;;;;;6.90;65.60;;;;;;4946868;28;87813;-50
2022/04/05 07:51:30;;;;;;;;;;;6.90;65.70;;;;;;4947374;28;88765;-50
2022/04/05 07:53:56;;;;;;;;;;;6.80;65.70;;;;;;4947168;28;87543;-50
2022/04/05 07:56:22;;;;;;;;;;;6.80;65.80;;;;;;4947324;28;86871;-52
2022/04/05 07:58:48;;;;;;;;;;;6.80;66.00;;;;;;4947599;28;87057;-50
2022/04/05 08:01:13;;;;;;;;;;;6.80;65.90;;;;;;4947000;28;88767;-50
2022/04/05 08:03:39;;;;;;;;;;;6.80;65.90;;;;;;4947172;28;86887;-50
2022/04/05 08:06:05;;;;;;;;;;;6.80;65.90;;;;;;4950377;28;86243;-52
2022/04/05 08:08:31;;;;;;;;;;;6.80;65.70;;;;;;4947004;28;87137;-50
2022/04/05 08:10:57;;;;;;;;;;;6.90;65.50;;;;;;4947250;28;87212;-52
2022/04/05 08:13:23;;;;;;;;;;;6.90;65.50;;;;;;4945319;28;88681;-50
2022/04/05 08:15:49;;;;;;;;;;;6.90;65.50;;;;;;4947124;28;86910;-51
2022/04/05 08:18:15;;;;;;;;;;;6.90;65.50;;;;;;4947066;28;88019;-50
2022/04/05 08:20:41;;;;;;;;;;;6.90;65.50;;;;;;4947089;28;87384;-50
2022/04/05 08:23:07;;;;;;;;;;;6.90;65.60;;;;;;4946965;28;87102;-50
2022/04/05 08:25:33;;;;;;;;;;;6.90;65.50;;;;;;4946962;28;87890;-51
2022/04/05 08:27:59;;;;;;;;;;;6.90;65.50;;;;;;4949677;28;86866;-51
2022/04/05 08:30:25;;;;;;;;;;;6.90;65.70;;;;;;4947425;28;87072;-51
2022/04/05 08:32:50;;;;;;;;;;;6.90;65.50;;;;;;4946684;28;87472;-50
2022/04/05 08:35:17;;;;;;;;;;;6.90;65.80;;;;;;4946800;28;86869;-50
2022/04/05 08:37:43;;;;;;;;;;;7.00;65.60;;;;;;4946120;28;87772;-51
2022/04/05 08:40:10;;;;;;;;;;;7.00;65.60;;;;;;4946368;28;88664;-50
2022/04/05 08:42:36;;;;;;;;;;;7.00;65.60;;;;;;4946789;28;87063;-50
2022/04/05 08:45:04;;;;;;;;;;;7.00;65.70;;;;;;4946707;28;87638;-51
2022/04/05 08:47:30;;;;;;;;;;;7.00;65.80;;;;;;4946354;28;87644;-50
2022/04/05 08:49:56;;;;;;;;;;;7.00;65.70;;;;;;4949743;28;86844;-51
2022/04/05 08:52:22;;;;;;;;;;;7.00;65.70;;;;;;4946174;28;88961;-50
2022/04/05 08:54:48;;;;;;;;;;;7.00;65.50;;;;;;4947380;28;86205;-51
2022/04/05 08:57:14;;;;;;;;;;;7.00;65.50;;;;;;4946570;28;87043;-51
2022/04/05 08:59:40;;;;;;;;;;;7.00;65.60;;;;;;4946590;28;87420;-50
2022/04/05 09:02:05;;;;;;;;;;;7.00;65.60;;;;;;4945817;28;87805;-50
2022/04/05 09:04:32;;;;;;;;;;;7.00;65.50;;;;;;4946598;28;88988;-50
2022/04/05 09:07:16;;;;;;;;;;;7.10;65.60;;;;;;4945714;28;88603;-54
2022/04/05 09:09:43;;;;;;;;;;;7.10;65.70;;;;;;4949326;28;86859;-51
2022/04/05 09:12:16;;;;;;;;;;;7.10;65.50;;;;;;4945975;28;88575;-51
2022/04/05 09:14:42;;;;;;;;;;;7.10;65.60;;;;;;4946695;28;87356;-50
2022/04/05 09:17:10;;;;;;;;;;;7.10;65.60;;;;;;4946382;28;87839;-52
2022/04/05 09:19:37;;;;;;;;;;;7.10;65.70;;;;;;4946481;28;87589;-50
2022/04/05 09:22:03;;;;;;;;;;;7.10;65.80;;;;;;4946317;28;86912;-50
2022/04/05 09:24:43;;;;;;;;;;;7.10;65.80;;;;;;4946279;28;88168;-51
2022/04/05 09:27:09;;;;;;;;;;;7.10;65.80;;;;;;4947971;28;88691;-50
2022/04/05 09:29:47;;;;;;;;;;;7.20;65.70;;;;;;4949516;28;87127;-52
2022/04/05 09:32:32;;;;;;;;;;;7.10;65.70;;;;;;4951959;28;86968;-51
2022/04/05 09:34:58;;;;;;;;;;;7.20;65.90;;;;;;4949888;28;87023;-50
2022/04/05 09:37:28;;;;;;;;;;;7.20;65.70;;;;;;4948999;28;87781;-51
2022/04/05 09:39:55;;;;;;;;;;;7.20;65.80;;;;;;4949150;28;88465;-51
2022/04/05 09:42:20;;;;;;;;;;;7.20;65.90;;;;;;4949428;28;87126;-50
2022/04/05 09:44:46;;;;;;;;;;;7.20;65.90;;;;;;4950129;28;86102;-50
2022/04/05 09:47:17;;;;;;;;;;;7.20;65.90;;;;;;4949067;28;87559;-51
2022/04/05 09:49:44;;;;;;;;;;;7.20;65.70;;;;;;4949296;28;86880;-51
2022/04/05 09:52:23;;;;;;;;;;;7.30;65.70;;;;;;4948675;28;87858;-51
2022/04/05 09:54:49;;;;;;;;;;;7.30;66.10;;;;;;4951742;28;88312;-54
2022/04/05 09:57:26;;;;;;;;;;;7.30;66.40;;;;;;4949171;28;87136;-51
2022/04/05 09:59:52;;;;;;;;;;;7.30;66.40;;;;;;4948764;28;89052;-51
2022/04/05 10:02:17;;;;;;;;;;;7.30;66.20;;;;;;4949083;28;86907;-51
2022/04/05 10:05:00;;;;;;;;;;;7.40;66.00;;;;;;4949250;28;86792;-51
2022/04/05 10:07:30;;;;;;;;;;;7.40;65.80;;;;;;4948362;28;87653;-51
2022/04/05 10:09:57;;;;;;;;;;;7.40;65.70;;;;;;4949457;28;86130;-51
2022/04/05 10:12:23;;;;;;;;;;;7.50;65.70;;;;;;4949158;28;86759;-51
2022/04/05 10:14:48;;;;;;;;;;;7.50;65.60;;;;;;4948772;28;87513;-51
2022/04/05 10:17:15;;;;;;;;;;;7.50;65.70;;;;;;4951146;28;87799;-51
2022/04/05 10:19:43;;;;;;;;;;;7.50;65.70;;;;;;4948736;28;87453;-51
2022/04/05 10:22:10;;;;;;;;;;;7.50;65.90;;;;;;4948708;28;86836;-50
2022/04/05 10:24:36;;;;;;;;;;;7.50;65.90;;;;;;4948786;28;87888;-50
2022/04/05 10:27:02;;;;;;;;;;;7.50;65.90;;;;;;4948573;28;87485;-50
2022/04/05 10:29:28;;;;;;;;;;;7.60;66.00;;;;;;4948648;28;86983;-51
2022/04/05 10:32:12;;;;;;;;;;;7.60;65.90;;;;;;4948573;28;88007;-51
2022/04/05 10:35:02;;;;;;;;;;;7.60;65.90;;;;;;4949115;28;87362;-50
2022/04/05 10:37:35;;;;;;;;;;;7.60;66.00;;;;;;4938081;28;87036;-50
2022/04/05 10:40:00;;;;;;;;;;;7.60;66.20;;;;;;4950986;28;88168;-51
2022/04/05 10:42:33;;;;;;;;;;;7.60;66.20;;;;;;4948101;28;88119;-50
2022/04/05 10:45:18;;;;;;;;;;;7.60;66.20;;;;;;4948726;28;86892;-50
2022/04/05 10:47:57;;;;;;;;;;;7.70;66.20;;;;;;4948001;28;87646;-50
2022/04/05 10:50:23;;;;;;;;;;;7.70;66.40;;;;;;4948622;28;86959;-51
2022/04/05 10:53:09;;;;;;;;;;;7.70;66.20;;;;;;4948321;28;86954;-51
2022/04/05 10:55:54;;;;;;;;;;;7.80;66.10;;;;;;4947862;28;90639;-50
2022/04/05 10:58:20;;;;;;;;;;;7.80;66.00;;;;;;4948228;28;86999;-51
2022/04/05 11:00:47;;;;;;;;;;;7.80;66.00;;;;;;4951370;28;86827;-52
2022/04/05 11:03:12;;;;;;;;;;;7.90;66.20;;;;;;4948142;28;86876;-51
2022/04/05 11:05:38;;;;;;;;;;;7.90;66.00;;;;;;4948062;28;86940;-51
2022/04/05 11:08:09;;;;;;;;;;;7.90;66.00;;;;;;4946376;28;88738;-51
2022/04/05 11:10:35;;;;;;;;;;;7.90;66.00;;;;;;4947927;28;86996;-50
2022/04/05 11:13:03;;;;;;;;;;;8.00;66.10;;;;;;4947969;28;87051;-51
2022/04/05 11:15:49;;;;;;;;;;;8.00;66.00;;;;;;4947333;28;86888;-51
2022/04/05 11:18:16;;;;;;;;;;;8.00;66.00;;;;;;4948224;28;86963;-51
2022/04/05 11:20:43;;;;;;;;;;;8.00;66.10;;;;;;4948011;28;87040;-51
2022/04/05 11:23:10;;;;;;;;;;;8.00;66.20;;;;;;4950102;28;87661;-51
2022/04/05 11:25:37;;;;;;;;;;;8.10;66.20;;;;;;4948311;28;87787;-50
2022/04/05 11:28:12;;;;;;;;;;;8.10;66.20;;;;;;4947430;28;88520;-51
2022/04/05 11:31:08;;;;;;;;;;;8.10;66.10;;;;;;4947734;28;86899;-51
2022/04/05 11:33:35;;;;;;;;;;;8.10;66.10;;;;;;4947006;28;88177;-51
2022/04/05 11:36:07;;;;;;;;;;;8.20;66.10;;;;;;4947283;28;88462;-51
2022/04/05 11:38:34;;;;;;;;;;;8.20;66.00;;;;;;4947699;28;87082;-51
2022/04/05 11:41:05;;;;;;;;;;;8.20;66.20;;;;;;4947524;28;87850;-51
2022/04/05 11:43:42;;;;;;;;;;;8.30;66.00;;;;;;4947341;28;87687;-51
2022/04/05 11:46:09;;;;;;;;;;;8.20;66.00;;;;;;4950719;28;86925;-51
2022/04/05 11:48:38;;;;;;;;;;;8.30;66.00;;;;;;4946243;28;88779;-51
2022/04/05 11:51:07;;;;;;;;;;;8.30;66.00;;;;;;4948247;28;86388;-51
2022/04/05 11:53:33;;;;;;;;;;;8.30;66.00;;;;;;4947464;28;87422;-51
2022/04/05 11:56:02;;;;;;;;;;;8.40;66.00;;;;;;4947078;28;88400;-52
2022/04/05 11:58:30;;;;;;;;;;;8.40;65.90;;;;;;4946749;28;87953;-51
2022/04/05 12:00:56;;;;;;;;;;;8.40;65.90;;;;;;4947290;28;88914;-52
2022/04/05 12:03:22;;;;;;;;;;;8.40;65.90;;;;;;4946937;28;88750;-51
2022/04/05 12:05:48;;;;;;;;;;;8.40;65.80;;;;;;4947499;28;86846;-51
2022/04/05 12:08:14;;;;;;;;;;;8.50;65.80;;;;;;4949116;28;87042;-52
2022/04/05 12:10:41;;;;;;;;;;;8.50;65.80;;;;;;4947521;28;86836;-52
2022/04/05 12:13:07;;;;;;;;;;;8.50;65.90;;;;;;4947148;28;87232;-51
2022/04/05 12:15:33;;;;;;;;;;;8.60;65.80;;;;;;4947306;28;87989;-52
2022/04/05 12:18:22;;;;;;;;;;;8.50;65.70;;;;;;4947462;28;86888;-51
2022/04/05 12:20:58;;;;;;;;;;;8.60;65.80;;;;;;4947128;28;87906;-52
2022/04/05 12:23:28;;;;;;;;;;;8.60;65.70;;;;;;4945727;28;89497;-55
2022/04/05 12:26:07;;;;;;;;;;;8.60;65.70;;;;;;4946939;28;87165;-55
2022/04/05 12:28:33;;;;;;;;;;;8.70;65.70;;;;;;4946544;28;88350;-52
2022/04/05 12:31:06;;;;;;;;;;;8.70;65.70;;;;;;4949128;28;87410;-52
2022/04/05 12:33:32;;;;;;;;;;;8.70;65.60;;;;;;4946640;28;86857;-51
2022/04/05 12:35:58;;;;;;;;;;;8.70;65.60;;;;;;4946297;28;87484;-53
2022/04/05 12:38:23;;;;;;;;;;;8.70;65.60;;;;;;4946339;28;86896;-51
2022/04/05 12:40:49;;;;;;;;;;;8.80;65.60;;;;;;4946480;28;86781;-52
2022/04/05 12:43:21;;;;;;;;;;;8.80;65.50;;;;;;4946287;28;88396;-56
2022/04/05 12:45:47;;;;;;;;;;;8.80;65.50;;;;;;4946758;28;86896;-56
2022/04/05 12:48:14;;;;;;;;;;;8.90;65.60;;;;;;4945702;28;87808;-53
2022/04/05 12:50:41;;;;;;;;;;;8.90;65.60;;;;;;4945965;28;87552;-55
2022/04/05 12:53:07;;;;;;;;;;;8.90;65.10;;;;;;4949288;28;87085;-55
2022/04/05 12:55:34;;;;;;;;;;;9.00;65.60;;;;;;4945865;28;88547;-52
2022/04/05 12:58:00;;;;;;;;;;;8.90;65.40;;;;;;4946453;28;86960;-54
2022/04/05 13:00:28;;;;;;;;;;;9.00;65.50;;;;;;4947582;28;86916;-56
2022/04/05 13:03:12;;;;;;;;;;;9.00;65.50;;;;;;4949428;28;86782;-56
2022/04/05 13:08:38;;;;;;;;;;;9.10;65.40;;;;;;4949513;28;87050;-55
2022/04/05 13:11:21;;;;;;;;;;;9.10;65.30;;;;;;4948924;28;87756;-53
2022/04/05 13:13:46;;;;;;;;;;;9.10;65.30;;;;;;4951699;28;87958;-56
2022/04/05 13:16:12;;;;;;;;;;;9.20;65.30;;;;;;4949429;28;87555;-56
2022/04/05 13:18:38;;;;;;;;;;;9.20;65.20;;;;;;4949433;28;86813;-55
2022/04/05 13:21:08;;;;;;;;;;;9.30;65.20;;;;;;4949279;28;87053;-55
2022/04/05 13:23:35;;;;;;;;;;;9.30;65.20;;;;;;4948842;28;87694;-55
2022/04/05 13:26:00;;;;;;;;;;;9.30;65.30;;;;;;4949281;28;86889;-55
2022/04/05 13:28:36;;;;;;;;;;;9.30;65.30;;;;;;4949499;28;86997;-53
2022/04/05 13:31:09;;;;;;;;;;;9.30;65.20;;;;;;4949500;28;86668;-54
2022/04/05 13:33:35;;;;;;;;;;;9.40;65.30;;;;;;4948409;28;87057;-55
2022/04/05 13:36:01;;;;;;;;;;;9.40;65.20;;;;;;4951749;28;88039;-53
2022/04/05 13:38:27;;;;;;;;;;;9.40;65.30;;;;;;4948652;28;87828;-52
2022/04/05 13:40:54;;;;;;;;;;;9.40;65.10;;;;;;4949059;28;87995;-52
2022/04/05 13:43:19;;;;;;;;;;;9.50;65.20;;;;;;4948572;28;88579;-56
2022/04/05 13:45:45;;;;;;;;;;;9.50;65.70;;;;;;4948913;28;86846;-54
2022/04/05 13:48:11;;;;;;;;;;;9.50;65.10;;;;;;4949439;28;86807;-54
2022/04/05 13:50:36;;;;;;;;;;;9.60;65.10;;;;;;4948446;28;88336;-54
2022/04/05 13:53:02;;;;;;;;;;;9.60;65.00;;;;;;4948567;28;86963;-54
2022/04/05 13:55:28;;;;;;;;;;;9.70;65.20;;;;;;4949604;28;86086;-54
2022/04/05 13:57:53;;;;;;;;;;;9.70;65.10;;;;;;4951376;28;87403;-54
2022/04/05 14:00:19;;;;;;;;;;;9.70;65.20;;;;;;4931624;28;89767;-53
2022/04/05 14:02:44;;;;;;;;;;;9.70;65.20;;;;;;4947892;28;88533;-55
2022/04/05 14:05:10;;;;;;;;;;;9.80;65.20;;;;;;4948547;28;86917;-53
2022/04/05 14:07:40;;;;;;;;;;;9.80;65.30;;;;;;4948273;28;87805;-55
2022/04/05 14:10:06;;;;;;;;;;;9.80;65.20;;;;;;4947586;28;87591;-56
2022/04/05 14:12:31;;;;;;;;;;;9.90;65.30;;;;;;4947597;28;86917;-54
2022/04/05 14:14:57;;;;;;;;;;;9.90;65.40;;;;;;4948342;28;87904;-52
2022/04/05 14:17:22;;;;;;;;;;;9.90;65.30;;;;;;4948039;28;87856;-53
2022/04/05 14:19:48;;;;;;;;;;;9.90;65.30;;;;;;4951663;28;86165;-56
2022/04/05 14:22:14;;;;;;;;;;;9.90;65.50;;;;;;4947970;28;88487;-54
2022/04/05 14:24:39;;;;;;;;;;;10.00;65.50;;;;;;4948501;28;86847;-52
2022/04/05 14:27:06;;;;;;;;;;;10.10;65.60;;;;;;4947623;28;88161;-54
2022/04/05 14:29:32;;;;;;;;;;;10.10;65.40;;;;;;4948044;28;87721;-55
2022/04/05 14:32:00;;;;;;;;;;;10.10;65.50;;;;;;4948339;28;87124;-54
2022/04/05 14:34:25;;;;;;;;;;;10.10;65.40;;;;;;4948118;28;87922;-55